createdAt,value
2022-12-15T00:02:01.396Z,-2.30
2022-12-15T00:04:48.103Z,-2.45
2022-12-15T00:07:34.821Z,-2.58
2022-12-15T00:10:21.728Z,-2.62
2022-12-15T00:13:08.342Z,-2.55
2022-12-15T00:15:55.443Z,-2.44
2022-12-15T00:18:42.287Z,-2.35
2022-12-15T00:21:29.623Z,-2.27
2022-12-15T00:24:16.519Z,-2.27
2022-12-15T00:27:02.913Z,-2.30
2022-12-15T00:29:50.763Z,-2.35
2022-12-15T00:32:37.276Z,-2.41
2022-12-15T00:35:24.497Z,-2.46
2022-12-15T00:38:11.415Z,-2.47
2022-12-15T00:40:39.680Z,-2.47
2022-12-15T00:43:12.290Z,-2.48
2022-12-15T00:45:59.286Z,-2.47
2022-12-15T00:48:27.544Z,-2.49
2022-12-15T00:50:55.847Z,-2.52
2022-12-15T00:53:43.392Z,-2.54
2022-12-15T00:56:29.819Z,-2.53
2022-12-15T00:59:16.486Z,-2.48
2022-12-15T01:02:03.233Z,-2.44
2022-12-15T01:04:50.205Z,-2.43
2022-12-15T01:07:36.923Z,-2.43
2022-12-15T01:10:24.160Z,-2.46
2022-12-15T01:13:10.655Z,-2.41
2022-12-15T01:15:58.115Z,-2.44
2022-12-15T01:18:45.108Z,-2.46
2022-12-15T01:21:18.607Z,-2.37
2022-12-15T01:23:48.925Z,-2.34
2022-12-15T01:26:17.115Z,-2.26
2022-12-15T01:28:45.400Z,-2.25
2022-12-15T01:31:14.405Z,-2.24
2022-12-15T01:33:44.005Z,-2.22
2022-12-15T01:36:12.487Z,-2.16
2022-12-15T01:38:40.762Z,-2.12
2022-12-15T01:41:11.283Z,-2.09
2022-12-15T01:43:40.485Z,-2.04
2022-12-15T01:46:18.376Z,-1.96
2022-12-15T01:48:49.339Z,-1.86
2022-12-15T01:51:34.002Z,-1.80
2022-12-15T01:54:08.312Z,-1.83
2022-12-15T01:56:42.326Z,-1.78
2022-12-15T01:59:16.864Z,-1.79
2022-12-15T02:01:45.543Z,-1.66
2022-12-15T02:04:22.740Z,-1.58
2022-12-15T02:06:52.135Z,-1.52
2022-12-15T02:09:24.614Z,-1.42
2022-12-15T02:12:11.402Z,-1.34
2022-12-15T02:14:45.441Z,-1.29
2022-12-15T02:17:22.223Z,-1.21
2022-12-15T02:20:17.930Z,-1.18
2022-12-15T02:22:54.934Z,-1.16
2022-12-15T02:25:52.703Z,-1.18
2022-12-15T02:28:52.922Z,-1.14
2022-12-15T02:31:49.658Z,-1.12
2022-12-15T02:34:42.640Z,-1.10
2022-12-15T02:37:14.091Z,-1.05
2022-12-15T02:39:43.180Z,-0.96
2022-12-15T02:42:12.279Z,-0.90
2022-12-15T02:45:09.855Z,-0.84
2022-12-15T02:48:09.573Z,-0.82
2022-12-15T02:50:44.191Z,-0.78
2022-12-15T02:53:50.868Z,-0.79
2022-12-15T02:56:37.080Z,-0.83
2022-12-15T02:59:14.977Z,-0.82
2022-12-15T03:01:49.817Z,-0.76
2022-12-15T03:04:19.631Z,-0.62
2022-12-15T03:07:01.090Z,-0.50
2022-12-15T03:09:33.600Z,-0.43
2022-12-15T03:12:02.286Z,-0.40
2022-12-15T03:14:30.660Z,-0.37
2022-12-15T03:16:58.959Z,-0.35
2022-12-15T03:19:27.346Z,-0.35
2022-12-15T03:21:55.612Z,-0.34
2022-12-15T03:24:23.785Z,-0.29
2022-12-15T03:26:52.057Z,-0.23
2022-12-15T03:29:20.341Z,-0.14
2022-12-15T03:31:50.073Z,-0.07
2022-12-15T03:34:18.638Z,-0.03
2022-12-15T03:36:46.909Z,0.04
2022-12-15T03:39:15.024Z,0.07
2022-12-15T03:41:43.168Z,0.12
2022-12-15T03:44:11.646Z,0.12
2022-12-15T03:46:39.927Z,0.13
2022-12-15T03:49:08.113Z,0.19
2022-12-15T03:51:36.291Z,0.19
2022-12-15T03:54:04.658Z,0.20
2022-12-15T03:56:33.126Z,0.22
2022-12-15T03:59:01.436Z,0.26
2022-12-15T04:01:32.633Z,0.32
2022-12-15T04:04:02.279Z,0.39
2022-12-15T04:06:30.969Z,0.43
2022-12-15T04:08:59.185Z,0.47
2022-12-15T04:11:27.535Z,0.50
2022-12-15T04:13:55.712Z,0.49
2022-12-15T04:16:23.916Z,0.44
2022-12-15T04:19:12.127Z,0.42
2022-12-15T04:21:41.134Z,0.43
2022-12-15T04:24:29.891Z,0.42
2022-12-15T04:27:16.187Z,0.44
2022-12-15T04:30:03.000Z,0.51
2022-12-15T04:32:50.084Z,0.57
2022-12-15T04:35:37.772Z,0.64
2022-12-15T04:38:24.679Z,0.67
2022-12-15T04:41:11.127Z,0.66
2022-12-15T04:43:58.921Z,0.67
2022-12-15T04:46:46.345Z,0.63
2022-12-15T04:49:33.872Z,0.59
2022-12-15T04:52:20.285Z,0.63
2022-12-15T04:55:06.476Z,0.68
2022-12-15T04:57:53.495Z,0.73
2022-12-15T05:00:39.900Z,0.77
2022-12-15T05:03:27.283Z,0.80
2022-12-15T05:06:16.288Z,0.82
2022-12-15T05:09:02.896Z,0.81
2022-12-15T05:11:49.311Z,0.79
2022-12-15T05:14:35.613Z,0.77
2022-12-15T05:17:22.503Z,0.74
2022-12-15T05:20:09.027Z,0.70
2022-12-15T05:22:55.225Z,0.60
2022-12-15T05:25:41.852Z,0.50
2022-12-15T05:28:28.364Z,0.42
2022-12-15T05:31:14.819Z,0.34
2022-12-15T05:33:43.258Z,0.28
2022-12-15T05:36:11.621Z,0.24
2022-12-15T05:38:41.463Z,0.15
2022-12-15T05:41:09.973Z,0.05
2022-12-15T05:43:38.328Z,-0.04
2022-12-15T05:46:07.191Z,-0.12
2022-12-15T05:48:35.926Z,-0.18
2022-12-15T05:51:08.530Z,-0.23
2022-12-15T05:53:38.930Z,-0.27
2022-12-15T05:56:12.997Z,-0.28
2022-12-15T05:58:45.361Z,-0.29
2022-12-15T06:01:20.362Z,-0.42
2022-12-15T06:03:49.657Z,-0.34
2022-12-15T06:06:19.159Z,-0.37
2022-12-15T06:08:50.161Z,-0.39
2022-12-15T06:11:21.487Z,-0.39
2022-12-15T06:13:50.399Z,-0.38
2022-12-15T06:16:21.859Z,-0.38
2022-12-15T06:18:54.295Z,-0.40
2022-12-15T06:21:26.717Z,-0.42
2022-12-15T06:23:56.531Z,-0.45
2022-12-15T06:26:31.265Z,-0.47
2022-12-15T06:29:02.927Z,-0.46
2022-12-15T06:31:32.661Z,-0.48
2022-12-15T06:34:04.792Z,-0.48
2022-12-15T06:36:33.174Z,-0.50
2022-12-15T06:39:05.304Z,-0.47
2022-12-15T06:41:34.446Z,-0.43
2022-12-15T06:44:03.863Z,-0.39
2022-12-15T06:46:35.861Z,-0.37
2022-12-15T06:49:05.128Z,-0.39
2022-12-15T06:51:33.694Z,-0.37
2022-12-15T06:54:03.059Z,-0.38
2022-12-15T06:56:36.365Z,-0.40
2022-12-15T06:59:07.612Z,-0.42
2022-12-15T07:01:37.480Z,-0.42
2022-12-15T07:04:06.633Z,-0.43
2022-12-15T07:06:38.395Z,-0.45
2022-12-15T07:09:11.967Z,-0.46
2022-12-15T07:11:41.277Z,-0.46
2022-12-15T07:14:10.987Z,-0.44
2022-12-15T07:16:41.760Z,-0.45
2022-12-15T07:19:15.928Z,-0.42
2022-12-15T07:21:45.841Z,-0.43
2022-12-15T07:24:16.125Z,-0.43
2022-12-15T07:26:48.936Z,-0.46
2022-12-15T07:29:23.193Z,-0.48
2022-12-15T07:31:52.659Z,-0.47
2022-12-15T07:34:21.879Z,-0.47
2022-12-15T07:36:52.640Z,-0.44
2022-12-15T07:39:22.333Z,-0.42
2022-12-15T07:41:51.547Z,-0.42
2022-12-15T07:44:20.152Z,-0.43
2022-12-15T07:46:49.577Z,-0.42
2022-12-15T07:49:19.338Z,-0.39
2022-12-15T07:51:48.484Z,-0.48
2022-12-15T07:54:19.257Z,-0.43
2022-12-15T07:56:50.379Z,-0.43
2022-12-15T07:59:20.017Z,-0.43
2022-12-15T08:01:49.612Z,-0.43
2022-12-15T08:04:18.917Z,-0.46
2022-12-15T08:06:47.461Z,-0.47
2022-12-15T08:09:17.149Z,-0.46
2022-12-15T08:11:46.092Z,-0.44
2022-12-15T08:14:18.171Z,-0.45
2022-12-15T08:16:48.890Z,-0.36
2022-12-15T08:19:18.720Z,-0.35
2022-12-15T08:21:48.660Z,-0.41
2022-12-15T08:24:18.135Z,-0.39
2022-12-15T08:26:50.109Z,-0.37
2022-12-15T08:32:08.926Z,-0.37
2022-12-15T08:34:39.500Z,-0.38
2022-12-15T08:37:08.706Z,-0.34
2022-12-15T08:39:37.434Z,-0.31
2022-12-15T08:42:05.961Z,-0.29
2022-12-15T08:44:34.754Z,-0.26
2022-12-15T08:47:03.179Z,-0.21
2022-12-15T08:49:33.394Z,-0.10
2022-12-15T08:52:02.593Z,-0.00
2022-12-15T08:54:32.748Z,0.06
2022-12-15T08:57:01.394Z,0.07
2022-12-15T08:59:29.993Z,0.11
2022-12-15T09:01:59.395Z,0.18
2022-12-15T09:04:28.947Z,0.24
2022-12-15T09:06:57.683Z,0.34
2022-12-15T09:09:26.163Z,0.45
2022-12-15T09:11:54.750Z,0.61
2022-12-15T09:14:29.022Z,0.76
2022-12-15T09:16:58.987Z,0.91
2022-12-15T09:19:28.240Z,1.03
2022-12-15T09:21:57.125Z,1.13
2022-12-15T09:24:34.321Z,1.19
2022-12-15T09:27:04.443Z,1.23
2022-12-15T09:29:34.644Z,1.32
2022-12-15T09:32:06.590Z,1.46
2022-12-15T09:34:39.351Z,1.60
2022-12-15T09:37:08.200Z,1.70
2022-12-15T09:39:38.094Z,1.68
2022-12-15T09:42:06.693Z,1.61
2022-12-15T09:44:35.895Z,1.61
2022-12-15T09:47:30.684Z,1.65
2022-12-15T09:50:03.462Z,1.69
2022-12-15T09:52:36.123Z,1.70
2022-12-15T09:55:27.523Z,1.67
2022-12-15T09:58:36.759Z,1.62
2022-12-15T10:01:13.446Z,1.54
2022-12-15T10:03:57.238Z,1.64
2022-12-15T10:06:34.526Z,1.64
2022-12-15T10:09:16.852Z,1.71
2022-12-15T10:11:51.924Z,1.72
2022-12-15T10:14:55.466Z,1.78
2022-12-15T10:17:23.780Z,1.83
2022-12-15T10:19:58.492Z,1.78
2022-12-15T10:22:31.900Z,1.77
2022-12-15T10:25:20.859Z,1.79
2022-12-15T10:27:54.966Z,1.80
2022-12-15T10:30:23.792Z,1.81
2022-12-15T10:32:56.452Z,1.75
2022-12-15T10:35:29.840Z,1.63
2022-12-15T10:38:00.880Z,1.52
2022-12-15T10:41:09.846Z,1.48
2022-12-15T10:43:42.308Z,1.50
2022-12-15T10:46:18.993Z,1.53
2022-12-15T10:48:50.921Z,1.55
2022-12-15T10:51:33.130Z,1.57
2022-12-15T10:54:06.503Z,1.52
2022-12-15T10:56:56.083Z,1.51
2022-12-15T10:59:39.106Z,1.42
2022-12-15T11:02:30.047Z,1.41
2022-12-15T11:05:16.176Z,1.50
2022-12-15T11:07:44.705Z,1.59
2022-12-15T11:10:17.475Z,1.66
2022-12-15T11:12:58.715Z,1.74
2022-12-15T11:15:39.278Z,1.69
2022-12-15T11:18:29.926Z,1.66
2022-12-15T11:21:17.039Z,1.62
2022-12-15T11:24:15.946Z,1.54
2022-12-15T11:26:55.570Z,1.48
2022-12-15T11:29:23.752Z,1.47
2022-12-15T11:31:57.156Z,1.53
2022-12-15T11:34:55.660Z,1.64
2022-12-15T11:37:41.601Z,1.79
2022-12-15T11:40:53.015Z,1.91
2022-12-15T11:44:14.191Z,2.01
2022-12-15T11:47:05.028Z,2.12
2022-12-15T11:49:48.912Z,2.18
2022-12-15T11:52:39.162Z,2.21
2022-12-15T11:55:40.846Z,2.19
2022-12-15T11:58:22.011Z,2.19
2022-12-15T12:01:15.390Z,2.24
2022-12-15T12:04:14.686Z,2.30
2022-12-15T12:06:59.964Z,2.26
2022-12-15T12:09:48.685Z,2.29
2022-12-15T12:12:43.095Z,2.35
2022-12-15T12:15:31.858Z,2.44
2022-12-15T12:18:30.747Z,2.48
2022-12-15T12:21:09.634Z,2.52
2022-12-15T12:23:51.714Z,2.53
2022-12-15T12:26:39.075Z,2.53
2022-12-15T12:29:33.448Z,2.47
2022-12-15T12:32:19.951Z,2.41
2022-12-15T12:35:31.023Z,2.32
2022-12-15T12:38:12.658Z,2.34
2022-12-15T12:40:41.265Z,2.36
2022-12-15T12:43:14.487Z,2.32
2022-12-15T12:45:57.988Z,2.36
2022-12-15T12:48:51.230Z,2.41
2022-12-15T12:51:32.911Z,2.42
2022-12-15T12:54:02.663Z,2.46
2022-12-15T12:56:43.678Z,2.49
2022-12-15T12:59:29.090Z,2.57
2022-12-15T13:02:31.165Z,2.61
2022-12-15T13:05:22.389Z,2.66
2022-12-15T13:08:18.918Z,2.62
2022-12-15T13:10:50.898Z,2.53
2022-12-15T13:13:32.266Z,2.48
2022-12-15T13:16:18.661Z,2.44
2022-12-15T13:19:08.714Z,2.39
2022-12-15T13:21:48.836Z,2.36
2022-12-15T13:24:32.536Z,2.41
2022-12-15T13:27:06.136Z,2.43
2022-12-15T13:29:36.844Z,2.46
2022-12-15T13:32:25.889Z,2.48
2022-12-15T13:34:54.921Z,2.59
2022-12-15T13:37:59.386Z,2.55
2022-12-15T13:40:33.890Z,2.57
2022-12-15T13:43:06.587Z,2.65
2022-12-15T13:45:39.099Z,2.68
2022-12-15T13:48:53.281Z,2.61
2022-12-15T13:51:32.462Z,2.66
2022-12-15T13:54:21.973Z,2.66
2022-12-15T13:56:57.746Z,2.74
2022-12-15T13:59:44.358Z,2.72
2022-12-15T14:02:35.852Z,2.69
2022-12-15T14:05:22.574Z,2.68
2022-12-15T14:07:54.909Z,2.64
2022-12-15T14:10:51.440Z,2.57
2022-12-15T14:13:22.063Z,2.52
2022-12-15T14:15:58.699Z,2.47
2022-12-15T14:18:33.099Z,2.42
2022-12-15T14:21:06.520Z,2.36
2022-12-15T14:24:19.251Z,2.26
2022-12-15T14:26:34.039Z,2.14
2022-12-15T14:29:05.610Z,2.02
2022-12-15T14:31:37.140Z,1.90
2022-12-15T14:34:15.257Z,1.82
2022-12-15T14:36:44.650Z,1.73
2022-12-15T14:39:29.513Z,1.64
2022-12-15T14:42:01.646Z,1.56
2022-12-15T14:44:39.453Z,1.47
2022-12-15T14:47:19.782Z,1.40
2022-12-15T14:49:49.103Z,1.34
2022-12-15T14:52:26.261Z,1.26
2022-12-15T14:55:00.295Z,1.16
2022-12-15T14:57:45.851Z,1.07
2022-12-15T15:00:34.518Z,1.00
2022-12-15T15:03:20.073Z,0.97
2022-12-15T15:05:54.297Z,0.94
2022-12-15T15:08:43.394Z,0.90
2022-12-15T15:11:29.787Z,0.86
2022-12-15T15:14:10.865Z,0.80
2022-12-15T15:16:39.804Z,0.65
2022-12-15T15:19:20.329Z,0.71
2022-12-15T15:21:49.219Z,0.65
2022-12-15T15:24:18.021Z,0.46
2022-12-15T15:26:46.920Z,0.35
2022-12-15T15:29:39.655Z,0.40
2022-12-15T15:32:20.923Z,0.36
2022-12-15T15:34:50.123Z,0.27
2022-12-15T15:37:19.131Z,0.18
2022-12-15T15:39:50.269Z,0.03
2022-12-15T15:42:19.558Z,-0.04
2022-12-15T15:44:48.461Z,-0.22
2022-12-15T15:47:26.901Z,-0.22
2022-12-15T15:50:00.120Z,-0.26
2022-12-15T15:52:32.421Z,-0.41
2022-12-15T15:55:01.628Z,-0.49
2022-12-15T15:57:30.208Z,-0.42
2022-12-15T15:59:59.855Z,-0.41
2022-12-15T16:02:29.220Z,-0.46
2022-12-15T16:04:58.457Z,-0.48
2022-12-15T16:07:29.462Z,-0.50
2022-12-15T16:09:58.047Z,-0.51
2022-12-15T16:12:48.966Z,-0.53
2022-12-15T16:15:22.045Z,-0.61
2022-12-15T16:17:50.670Z,-0.75
2022-12-15T16:20:22.006Z,-0.90
2022-12-15T16:22:57.562Z,-0.94
2022-12-15T16:25:46.884Z,-0.99
2022-12-15T16:28:24.636Z,-1.19
2022-12-15T16:30:54.889Z,-1.25
2022-12-15T16:33:23.752Z,-1.32
2022-12-15T16:35:54.947Z,-1.41
2022-12-15T16:38:26.160Z,-1.50
2022-12-15T16:40:57.623Z,-1.60
2022-12-15T16:43:31.460Z,-1.71
2022-12-15T16:46:06.225Z,-1.83
2022-12-15T16:48:36.492Z,-1.94
2022-12-15T16:51:09.537Z,-2.06
2022-12-15T16:53:42.690Z,-2.16
2022-12-15T16:56:16.223Z,-2.23
2022-12-15T16:58:48.800Z,-2.28
2022-12-15T17:01:23.299Z,-2.32
2022-12-15T17:03:54.443Z,-2.35
2022-12-15T17:06:25.142Z,-2.38
2022-12-15T17:08:58.011Z,-2.37
2022-12-15T17:11:29.596Z,-2.41
2022-12-15T17:14:01.483Z,-2.46
2022-12-15T17:19:06.277Z,-2.48
2022-12-15T17:21:48.314Z,-2.54
2022-12-15T17:24:20.468Z,-2.60
2022-12-15T17:26:50.318Z,-2.64
2022-12-15T17:29:22.521Z,-2.67
2022-12-15T17:31:52.750Z,-2.70
2022-12-15T17:34:35.095Z,-2.73
2022-12-15T17:37:08.657Z,-2.75
2022-12-15T17:39:38.003Z,-2.77
2022-12-15T17:42:20.327Z,-2.81
2022-12-15T17:44:51.826Z,-2.88
2022-12-15T17:47:21.774Z,-2.94
2022-12-15T17:49:50.859Z,-3.12
2022-12-15T17:52:26.717Z,-3.06
2022-12-15T17:54:56.783Z,-3.00
2022-12-15T17:57:25.921Z,-3.01
2022-12-15T17:59:55.132Z,-3.01
2022-12-15T18:02:25.032Z,-3.00
2022-12-15T18:04:55.777Z,-2.99
2022-12-15T18:07:24.789Z,-2.96
2022-12-15T18:09:54.788Z,-2.89
2022-12-15T18:12:26.684Z,-2.83
2022-12-15T18:14:57.787Z,-2.78
2022-12-15T18:17:27.691Z,-2.73
2022-12-15T18:19:56.695Z,-2.68
2022-12-15T18:22:25.659Z,-2.66
2022-12-15T18:24:54.850Z,-2.65
2022-12-15T18:27:29.225Z,-2.67
2022-12-15T18:29:59.032Z,-2.70
2022-12-15T18:32:30.258Z,-2.71
2022-12-15T18:35:00.683Z,-2.74
2022-12-15T18:37:30.802Z,-2.77
2022-12-15T18:40:04.837Z,-2.82
2022-12-15T18:42:36.381Z,-2.86
2022-12-15T18:45:27.969Z,-2.92
2022-12-15T18:47:58.316Z,-2.94
2022-12-15T18:50:27.494Z,-2.96
2022-12-15T18:53:02.981Z,-2.97
2022-12-15T18:55:32.159Z,-2.99
2022-12-15T18:58:02.162Z,-3.00
2022-12-15T19:00:32.546Z,-3.00
2022-12-15T19:03:01.458Z,-2.95
2022-12-15T19:05:32.910Z,-2.88
2022-12-15T19:08:14.830Z,-2.85
2022-12-15T19:11:08.629Z,-2.84
2022-12-15T19:13:39.915Z,-2.84
2022-12-15T19:16:16.492Z,-2.84
2022-12-15T19:19:04.461Z,-2.83
2022-12-15T19:21:54.375Z,-2.83
2022-12-15T19:24:47.532Z,-2.82
2022-12-15T19:27:23.372Z,-2.80
2022-12-15T19:29:54.665Z,-2.80
2022-12-15T19:32:24.530Z,-2.81
2022-12-15T19:34:53.546Z,-2.86
2022-12-15T19:37:29.145Z,-2.91
2022-12-15T19:40:01.013Z,-2.99
2022-12-15T19:42:34.815Z,-2.94
2022-12-15T19:45:18.305Z,-2.94
2022-12-15T19:47:48.377Z,-3.00
2022-12-15T19:50:24.540Z,-2.91
2022-12-15T19:53:02.337Z,-2.88
2022-12-15T19:55:34.956Z,-2.86
2022-12-15T19:58:27.840Z,-2.82
2022-12-15T20:01:00.855Z,-2.78
2022-12-15T20:03:34.472Z,-2.72
2022-12-15T20:06:04.877Z,-2.77
2022-12-15T20:08:38.643Z,-2.57
2022-12-15T20:11:22.869Z,-2.52
2022-12-15T20:13:53.697Z,-2.47
2022-12-15T20:16:23.896Z,-2.51
2022-12-15T20:18:55.559Z,-2.55
2022-12-15T20:21:32.147Z,-2.56
2022-12-15T20:24:19.788Z,-2.54
2022-12-15T20:26:50.516Z,-2.51
2022-12-15T20:29:33.389Z,-2.49
2022-12-15T20:32:04.298Z,-2.45
2022-12-15T20:34:33.679Z,-2.43
2022-12-15T20:37:06.428Z,-2.41
2022-12-15T20:39:36.061Z,-2.40
2022-12-15T20:42:06.541Z,-2.41
2022-12-15T20:44:35.279Z,-2.45
2022-12-15T20:47:04.788Z,-2.46
2022-12-15T20:49:34.012Z,-2.45
2022-12-15T20:52:04.084Z,-2.42
2022-12-15T20:54:32.895Z,-2.42
2022-12-15T20:57:03.270Z,-2.40
2022-12-15T20:59:33.699Z,-2.37
2022-12-15T21:02:02.676Z,-2.32
2022-12-15T21:04:33.020Z,-2.27
2022-12-15T21:07:02.635Z,-2.20
2022-12-15T21:09:32.205Z,-2.17
2022-12-15T21:12:05.907Z,-2.18
2022-12-15T21:14:40.410Z,-2.18
2022-12-15T21:17:18.036Z,-2.27
2022-12-15T21:19:48.230Z,-2.14
2022-12-15T21:22:23.326Z,-2.10
2022-12-15T21:24:54.310Z,-2.10
2022-12-15T21:27:23.802Z,-1.88
2022-12-15T21:29:53.269Z,-1.82
2022-12-15T21:32:22.476Z,-1.80
2022-12-15T21:34:52.375Z,-1.77
2022-12-15T21:37:30.979Z,-1.75
2022-12-15T21:40:00.764Z,-1.76
2022-12-15T21:42:36.844Z,-1.77
2022-12-15T21:45:21.291Z,-1.77
2022-12-15T21:48:09.550Z,-1.74
2022-12-15T21:50:39.125Z,-1.69
2022-12-15T21:53:07.717Z,-1.63
2022-12-15T21:55:36.614Z,-1.64
2022-12-15T21:58:18.730Z,-1.55
2022-12-15T22:00:47.395Z,-1.53
2022-12-15T22:03:16.933Z,-1.51
2022-12-15T22:05:51.585Z,-1.57
2022-12-15T22:08:24.021Z,-1.55
2022-12-15T22:10:55.139Z,-1.47
2022-12-15T22:13:23.878Z,-1.45
2022-12-15T22:15:52.415Z,-1.45
2022-12-15T22:18:23.864Z,-1.44
2022-12-15T22:20:52.775Z,-1.43
2022-12-15T22:23:21.181Z,-1.40
2022-12-15T22:25:54.697Z,-1.35
2022-12-15T22:28:26.077Z,-1.29
2022-12-15T22:30:57.084Z,-1.33
2022-12-15T22:33:26.783Z,-1.28
2022-12-15T22:35:56.472Z,-1.24
2022-12-15T22:38:25.301Z,-1.20
2022-12-15T22:40:56.929Z,-1.17
2022-12-15T22:43:43.746Z,-1.15
2022-12-15T22:46:14.984Z,-1.09
2022-12-15T22:48:47.762Z,-1.18
2022-12-15T22:51:18.094Z,-1.34
2022-12-15T22:53:46.838Z,-1.38
2022-12-15T22:56:24.983Z,-1.40
2022-12-15T22:59:05.402Z,-1.41
2022-12-15T23:01:34.196Z,-1.43
2022-12-15T23:04:03.980Z,-1.56
2022-12-15T23:06:32.909Z,-1.42
2022-12-15T23:09:01.004Z,-1.39
2022-12-15T23:11:37.992Z,-1.22
2022-12-15T23:14:12.035Z,-1.16
2022-12-15T23:16:40.883Z,-1.06
2022-12-15T23:19:09.858Z,-0.98
2022-12-15T23:21:38.576Z,-0.92
2022-12-15T23:24:08.465Z,-0.90
2022-12-15T23:26:36.663Z,-0.88
2022-12-15T23:29:04.737Z,-0.83
2022-12-15T23:31:32.871Z,-0.80
2022-12-15T23:34:01.196Z,-0.79
2022-12-15T23:36:29.432Z,-0.78
2022-12-15T23:38:58.555Z,-0.79
2022-12-15T23:41:29.402Z,-0.89
2022-12-15T23:43:58.101Z,-0.96
2022-12-15T23:46:27.035Z,-0.97
2022-12-15T23:48:55.270Z,-0.95
2022-12-15T23:51:23.520Z,-0.95
2022-12-15T23:53:51.793Z,-0.96
2022-12-15T23:56:23.383Z,-0.93
2022-12-15T23:58:59.453Z,-0.85
